sensor_id;sensor_type;location;lat;lon;timestamp;pressure;altitude;pressure_sealevel;temperature;humidity
20987;BME280;10652;50.306;8.570;2022-10-17T00:03:36;98352.38;;;16.40;100.00
20987;BME280;10652;50.306;8.570;2022-10-17T00:07:38;98358.75;;;16.67;100.00
20987;BME280;10652;50.306;8.570;2022-10-17T00:11:40;98357.84;;;16.82;100.00
20987;BME280;10652;50.306;8.570;2022-10-17T00:15:43;98364.84;;;16.83;100.00
20987;BME280;10652;50.306;8.570;2022-10-17T00:19:45;98361.84;;;16.89;100.00
20987;BME280;10652;50.306;8.570;2022-10-17T00:23:47;98361.56;;;16.94;100.00
20987;BME280;10652;50.306;8.570;2022-10-17T00:27:50;98366.75;;;16.96;100.00
20987;BME280;10652;50.306;8.570;2022-10-17T00:31:55;98375.47;;;16.98;100.00
20987;BME280;10652;50.306;8.570;2022-10-17T00:36:25;98368.41;;;17.12;100.00
20987;BME280;10652;50.306;8.570;2022-10-17T00:40:27;98371.59;;;17.17;100.00
20987;BME280;10652;50.306;8.570;2022-10-17T00:48:31;98377.38;;;17.24;100.00
20987;BME280;10652;50.306;8.570;2022-10-17T00:52:34;98385.41;;;17.22;100.00
20987;BME280;10652;50.306;8.570;2022-10-17T00:56:37;98388.19;;;17.21;100.00
20987;BME280;10652;50.306;8.570;2022-10-17T01:00:42;98385.69;;;17.18;100.00
20987;BME280;10652;50.306;8.570;2022-10-17T01:04:46;98379.16;;;17.09;100.00
20987;BME280;10652;50.306;8.570;2022-10-17T01:08:49;98380.88;;;17.10;100.00
20987;BME280;10652;50.306;8.570;2022-10-17T01:12:56;98393.31;;;17.08;100.00
20987;BME280;10652;50.306;8.570;2022-10-17T01:17:12;98387.28;;;17.06;100.00
20987;BME280;10652;50.306;8.570;2022-10-17T01:21:31;98389.84;;;17.08;100.00
20987;BME280;10652;50.306;8.570;2022-10-17T01:30:19;98380.91;;;16.95;100.00
20987;BME280;10652;50.306;8.570;2022-10-17T01:34:44;98387.25;;;16.92;100.00
20987;BME280;10652;50.306;8.570;2022-10-17T01:38:54;98389.41;;;16.85;100.00
20987;BME280;10652;50.306;8.570;2022-10-17T01:47:24;98376.16;;;16.85;100.00
20987;BME280;10652;50.306;8.570;2022-10-17T01:52:06;98383.16;;;16.86;100.00
20987;BME280;10652;50.306;8.570;2022-10-17T01:56:01;98383.84;;;16.90;100.00
20987;BME280;10652;50.306;8.570;2022-10-17T02:00:10;98384.69;;;16.90;100.00
20987;BME280;10652;50.306;8.570;2022-10-17T02:04:14;98388.66;;;16.83;100.00
20987;BME280;10652;50.306;8.570;2022-10-17T02:08:25;98383.03;;;16.74;100.00
20987;BME280;10652;50.306;8.570;2022-10-17T02:12:46;98380.47;;;16.72;100.00
20987;BME280;10652;50.306;8.570;2022-10-17T02:16:59;98370.09;;;16.69;100.00
20987;BME280;10652;50.306;8.570;2022-10-17T02:21:18;98369.44;;;16.66;100.00
20987;BME280;10652;50.306;8.570;2022-10-17T02:25:35;98370.44;;;16.63;100.00
20987;BME280;10652;50.306;8.570;2022-10-17T02:30:03;98386.16;;;16.66;100.00
20987;BME280;10652;50.306;8.570;2022-10-17T02:34:31;98376.44;;;16.67;100.00
20987;BME280;10652;50.306;8.570;2022-10-17T02:38:35;98381.59;;;16.68;100.00
20987;BME280;10652;50.306;8.570;2022-10-17T02:42:41;98385.97;;;16.69;100.00
20987;BME280;10652;50.306;8.570;2022-10-17T02:46:51;98387.81;;;16.67;100.00
20987;BME280;10652;50.306;8.570;2022-10-17T02:51:07;98392.28;;;16.67;100.00
20987;BME280;10652;50.306;8.570;2022-10-17T02:55:18;98392.44;;;16.64;100.00
20987;BME280;10652;50.306;8.570;2022-10-17T02:59:25;98395.19;;;16.62;100.00
20987;BME280;10652;50.306;8.570;2022-10-17T03:03:31;98390.00;;;16.61;100.00
20987;BME280;10652;50.306;8.570;2022-10-17T03:07:35;98391.78;;;16.60;100.00
20987;BME280;10652;50.306;8.570;2022-10-17T03:11:37;98393.50;;;16.61;100.00
20987;BME280;10652;50.306;8.570;2022-10-17T03:15:41;98390.06;;;16.59;100.00
20987;BME280;10652;50.306;8.570;2022-10-17T03:19:43;98391.00;;;16.58;100.00
20987;BME280;10652;50.306;8.570;2022-10-17T03:23:45;98395.34;;;16.59;100.00
20987;BME280;10652;50.306;8.570;2022-10-17T03:27:48;98393.50;;;16.61;100.00
20987;BME280;10652;50.306;8.570;2022-10-17T03:31:50;98398.78;;;16.61;100.00
20987;BME280;10652;50.306;8.570;2022-10-17T03:35:53;98407.47;;;16.63;100.00
20987;BME280;10652;50.306;8.570;2022-10-17T03:39:56;98416.16;;;16.65;100.00
20987;BME280;10652;50.306;8.570;2022-10-17T03:43:59;98425.69;;;16.68;100.00
20987;BME280;10652;50.306;8.570;2022-10-17T03:48:01;98433.63;;;16.68;100.00
20987;BME280;10652;50.306;8.570;2022-10-17T03:52:04;98423.06;;;16.68;100.00
20987;BME280;10652;50.306;8.570;2022-10-17T03:56:14;98428.47;;;16.66;100.00
20987;BME280;10652;50.306;8.570;2022-10-17T04:00:17;98435.44;;;16.67;100.00
20987;BME280;10652;50.306;8.570;2022-10-17T04:04:28;98425.69;;;16.68;100.00
20987;BME280;10652;50.306;8.570;2022-10-17T04:08:33;98445.84;;;16.70;100.00
20987;BME280;10652;50.306;8.570;2022-10-17T04:12:42;98443.28;;;16.69;100.00
20987;BME280;10652;50.306;8.570;2022-10-17T04:16:44;98454.72;;;16.69;100.00
20987;BME280;10652;50.306;8.570;2022-10-17T04:20:51;98459.06;;;16.70;100.00
20987;BME280;10652;50.306;8.570;2022-10-17T04:24:53;98452.94;;;16.70;100.00
20987;BME280;10652;50.306;8.570;2022-10-17T04:29:07;98447.72;;;16.68;100.00
20987;BME280;10652;50.306;8.570;2022-10-17T04:33:09;98444.06;;;16.71;100.00
20987;BME280;10652;50.306;8.570;2022-10-17T04:37:11;98435.28;;;16.70;100.00
20987;BME280;10652;50.306;8.570;2022-10-17T04:41:15;98431.84;;;16.68;100.00
20987;BME280;10652;50.306;8.570;2022-10-17T04:45:18;98442.94;;;16.75;100.00
20987;BME280;10652;50.306;8.570;2022-10-17T04:49:21;98455.72;;;16.82;100.00
20987;BME280;10652;50.306;8.570;2022-10-17T04:53:27;98465.38;;;16.83;100.00
20987;BME280;10652;50.306;8.570;2022-10-17T04:57:36;98472.63;;;16.80;100.00
20987;BME280;10652;50.306;8.570;2022-10-17T05:01:48;98479.13;;;16.74;100.00
20987;BME280;10652;50.306;8.570;2022-10-17T05:05:52;98480.63;;;16.78;100.00
20987;BME280;10652;50.306;8.570;2022-10-17T05:09:54;98479.38;;;16.70;100.00
20987;BME280;10652;50.306;8.570;2022-10-17T05:14:00;98484.25;;;16.62;100.00
20987;BME280;10652;50.306;8.570;2022-10-17T05:18:05;98478.25;;;16.58;100.00
20987;BME280;10652;50.306;8.570;2022-10-17T05:22:08;98464.44;;;16.53;100.00
20987;BME280;10652;50.306;8.570;2022-10-17T05:26:11;98470.91;;;16.48;100.00
20987;BME280;10652;50.306;8.570;2022-10-17T05:30:13;98470.41;;;16.41;100.00
20987;BME280;10652;50.306;8.570;2022-10-17T05:34:15;98484.91;;;16.34;100.00
20987;BME280;10652;50.306;8.570;2022-10-17T05:38:19;98495.63;;;16.31;100.00
20987;BME280;10652;50.306;8.570;2022-10-17T05:42:22;98494.09;;;16.27;100.00
20987;BME280;10652;50.306;8.570;2022-10-17T05:46:25;98489.16;;;16.21;100.00
20987;BME280;10652;50.306;8.570;2022-10-17T05:50:27;98487.38;;;16.21;100.00
20987;BME280;10652;50.306;8.570;2022-10-17T05:54:37;98478.84;;;16.32;100.00
20987;BME280;10652;50.306;8.570;2022-10-17T05:58:41;98486.50;;;16.36;100.00
20987;BME280;10652;50.306;8.570;2022-10-17T06:03:03;98489.31;;;16.33;100.00
20987;BME280;10652;50.306;8.570;2022-10-17T06:07:05;98486.94;;;16.29;100.00
20987;BME280;10652;50.306;8.570;2022-10-17T06:11:09;98501.88;;;16.30;100.00
20987;BME280;10652;50.306;8.570;2022-10-17T06:15:12;98498.00;;;16.35;100.00
20987;BME280;10652;50.306;8.570;2022-10-17T06:19:17;98500.16;;;16.44;100.00
20987;BME280;10652;50.306;8.570;2022-10-17T06:23:20;98502.06;;;16.58;100.00
20987;BME280;10652;50.306;8.570;2022-10-17T06:27:37;98513.09;;;16.66;100.00
20987;BME280;10652;50.306;8.570;2022-10-17T06:31:40;98520.56;;;16.74;100.00
20987;BME280;10652;50.306;8.570;2022-10-17T06:35:42;98527.91;;;16.84;100.00
20987;BME280;10652;50.306;8.570;2022-10-17T06:39:44;98526.63;;;16.92;100.00
20987;BME280;10652;50.306;8.570;2022-10-17T06:43:50;98525.59;;;16.94;100.00
20987;BME280;10652;50.306;8.570;2022-10-17T06:48:18;98536.94;;;16.96;100.00
20987;BME280;10652;50.306;8.570;2022-10-17T06:52:41;98544.94;;;16.95;100.00
20987;BME280;10652;50.306;8.570;2022-10-17T06:57:02;98549.41;;;16.94;100.00
20987;BME280;10652;50.306;8.570;2022-10-17T07:01:30;98546.59;;;16.97;100.00
20987;BME280;10652;50.306;8.570;2022-10-17T07:05:34;98550.75;;;17.01;100.00
20987;BME280;10652;50.306;8.570;2022-10-17T07:09:36;98546.91;;;17.07;100.00
20987;BME280;10652;50.306;8.570;2022-10-17T07:13:38;98556.19;;;17.14;100.00
20987;BME280;10652;50.306;8.570;2022-10-17T07:17:41;98551.41;;;17.20;100.00
20987;BME280;10652;50.306;8.570;2022-10-17T07:21:43;98564.19;;;17.28;100.00
20987;BME280;10652;50.306;8.570;2022-10-17T07:25:46;98564.00;;;17.31;100.00
20987;BME280;10652;50.306;8.570;2022-10-17T07:29:49;98580.50;;;17.36;100.00
20987;BME280;10652;50.306;8.570;2022-10-17T07:33:58;98573.72;;;17.46;100.00
20987;BME280;10652;50.306;8.570;2022-10-17T07:38:01;98565.16;;;17.57;100.00
20987;BME280;10652;50.306;8.570;2022-10-17T07:42:04;98568.22;;;17.65;100.00
20987;BME280;10652;50.306;8.570;2022-10-17T07:46:06;98572.47;;;17.67;100.00
20987;BME280;10652;50.306;8.570;2022-10-17T07:50:09;98578.28;;;17.74;100.00
20987;BME280;10652;50.306;8.570;2022-10-17T07:54:11;98577.94;;;17.80;100.00
20987;BME280;10652;50.306;8.570;2022-10-17T07:58:13;98581.91;;;17.87;100.00
20987;BME280;10652;50.306;8.570;2022-10-17T08:02:24;98586.94;;;17.92;100.00
20987;BME280;10652;50.306;8.570;2022-10-17T08:06:26;98589.97;;;18.00;100.00
20987;BME280;10652;50.306;8.570;2022-10-17T08:10:28;98591.97;;;18.10;100.00
20987;BME280;10652;50.306;8.570;2022-10-17T08:14:30;98574.66;;;18.19;100.00
20987;BME280;10652;50.306;8.570;2022-10-17T08:18:36;98582.81;;;18.30;99.59
20987;BME280;10652;50.306;8.570;2022-10-17T08:22:39;98585.84;;;18.38;98.18
20987;BME280;10652;50.306;8.570;2022-10-17T08:26:41;98589.78;;;18.45;97.86
20987;BME280;10652;50.306;8.570;2022-10-17T08:30:46;98590.38;;;18.50;97.58
20987;BME280;10652;50.306;8.570;2022-10-17T08:34:49;98595.34;;;18.56;96.93
20987;BME280;10652;50.306;8.570;2022-10-17T08:38:51;98583.38;;;18.63;97.03
20987;BME280;10652;50.306;8.570;2022-10-17T08:43:04;98576.47;;;18.75;96.44
20987;BME280;10652;50.306;8.570;2022-10-17T08:47:12;98577.75;;;18.82;95.96
20987;BME280;10652;50.306;8.570;2022-10-17T08:51:20;98574.81;;;18.87;94.95
20987;BME280;10652;50.306;8.570;2022-10-17T08:55:31;98567.19;;;18.95;94.78
20987;BME280;10652;50.306;8.570;2022-10-17T08:59:34;98568.41;;;19.03;94.63
20987;BME280;10652;50.306;8.570;2022-10-17T09:12:46;98573.38;;;19.22;90.70
20987;BME280;10652;50.306;8.570;2022-10-17T09:17:00;98578.28;;;19.28;90.75
20987;BME280;10652;50.306;8.570;2022-10-17T09:21:16;98591.50;;;19.42;91.24
20987;BME280;10652;50.306;8.570;2022-10-17T09:25:20;98585.41;;;19.54;90.81
20987;BME280;10652;50.306;8.570;2022-10-17T09:29:24;98585.97;;;19.60;90.28
20987;BME280;10652;50.306;8.570;2022-10-17T09:33:42;98588.00;;;19.69;88.97
20987;BME280;10652;50.306;8.570;2022-10-17T09:38:00;98585.47;;;19.80;87.93
20987;BME280;10652;50.306;8.570;2022-10-17T09:42:02;98576.75;;;19.90;87.09
20987;BME280;10652;50.306;8.570;2022-10-17T09:54:39;98595.28;;;20.17;83.68
20987;BME280;10652;50.306;8.570;2022-10-17T09:58:44;98597.31;;;20.26;82.65
20987;BME280;10652;50.306;8.570;2022-10-17T10:02:46;98601.06;;;20.36;81.93
20987;BME280;10652;50.306;8.570;2022-10-17T10:07:04;98596.56;;;20.50;81.82
20987;BME280;10652;50.306;8.570;2022-10-17T10:11:07;98615.63;;;20.56;80.53
20987;BME280;10652;50.306;8.570;2022-10-17T10:15:34;98622.78;;;20.56;80.18
20987;BME280;10652;50.306;8.570;2022-10-17T10:19:37;98632.22;;;20.60;79.84
20987;BME280;10652;50.306;8.570;2022-10-17T10:23:44;98638.31;;;20.62;79.83
20987;BME280;10652;50.306;8.570;2022-10-17T10:27:47;98635.66;;;20.62;79.49
20987;BME280;10652;50.306;8.570;2022-10-17T10:31:50;98642.34;;;20.67;80.39
20987;BME280;10652;50.306;8.570;2022-10-17T10:35:58;98636.34;;;20.76;80.59
20987;BME280;10652;50.306;8.570;2022-10-17T10:40:15;98630.94;;;20.78;80.39
20987;BME280;10652;50.306;8.570;2022-10-17T10:44:23;98625.38;;;20.81;80.19
20987;BME280;10652;50.306;8.570;2022-10-17T10:48:33;98640.16;;;20.85;80.55
20987;BME280;10652;50.306;8.570;2022-10-17T10:52:50;98655.72;;;20.91;80.14
20987;BME280;10652;50.306;8.570;2022-10-17T10:56:59;98651.88;;;20.95;79.95
20987;BME280;10652;50.306;8.570;2022-10-17T11:01:15;98646.75;;;21.05;79.84
20987;BME280;10652;50.306;8.570;2022-10-17T11:10:11;98631.97;;;21.37;77.59
20987;BME280;10652;50.306;8.570;2022-10-17T11:14:37;98635.34;;;21.52;72.29
20987;BME280;10652;50.306;8.570;2022-10-17T11:22:57;98626.97;;;21.80;72.50
20987;BME280;10652;50.306;8.570;2022-10-17T11:27:04;98631.06;;;21.97;70.80
20987;BME280;10652;50.306;8.570;2022-10-17T11:31:12;98625.63;;;22.09;69.34
20987;BME280;10652;50.306;8.570;2022-10-17T11:35:24;98625.69;;;22.21;69.29
20987;BME280;10652;50.306;8.570;2022-10-17T11:39:42;98624.47;;;22.25;69.68
20987;BME280;10652;50.306;8.570;2022-10-17T11:57:00;98657.00;;;22.41;70.86
20987;BME280;10652;50.306;8.570;2022-10-17T12:01:26;98661.75;;;22.48;71.32
20987;BME280;10652;50.306;8.570;2022-10-17T12:05:44;98637.84;;;22.58;67.90
20987;BME280;10652;50.306;8.570;2022-10-17T12:10:00;98638.50;;;22.73;66.64
20987;BME280;10652;50.306;8.570;2022-10-17T12:14:43;98636.44;;;22.87;65.49
20987;BME280;10652;50.306;8.570;2022-10-17T12:18:47;98637.41;;;22.97;65.77
20987;BME280;10652;50.306;8.570;2022-10-17T12:22:51;98640.78;;;23.11;64.92
20987;BME280;10652;50.306;8.570;2022-10-17T12:26:53;98641.75;;;23.21;64.62
20987;BME280;10652;50.306;8.570;2022-10-17T12:31:01;98645.59;;;23.28;64.56
20987;BME280;10652;50.306;8.570;2022-10-17T12:35:04;98649.72;;;23.32;63.41
20987;BME280;10652;50.306;8.570;2022-10-17T12:51:17;98673.31;;;23.27;65.45
20987;BME280;10652;50.306;8.570;2022-10-17T12:55:39;98670.41;;;23.30;64.53
20987;BME280;10652;50.306;8.570;2022-10-17T12:59:42;98665.75;;;23.32;64.63
20987;BME280;10652;50.306;8.570;2022-10-17T13:03:46;98656.53;;;23.36;63.99
20987;BME280;10652;50.306;8.570;2022-10-17T13:07:50;98666.25;;;23.37;64.41
20987;BME280;10652;50.306;8.570;2022-10-17T13:11:54;98672.06;;;23.42;64.05
20987;BME280;10652;50.306;8.570;2022-10-17T13:15:58;98663.94;;;23.43;64.49
20987;BME280;10652;50.306;8.570;2022-10-17T13:20:00;98661.88;;;23.36;64.86
20987;BME280;10652;50.306;8.570;2022-10-17T13:24:19;98673.56;;;23.24;64.47
20987;BME280;10652;50.306;8.570;2022-10-17T13:28:21;98678.53;;;23.17;64.97
20987;BME280;10652;50.306;8.570;2022-10-17T13:32:33;98672.81;;;23.22;65.10
20987;BME280;10652;50.306;8.570;2022-10-17T13:36:35;98674.25;;;23.37;65.71
20987;BME280;10652;50.306;8.570;2022-10-17T13:40:42;98675.69;;;23.63;65.63
20987;BME280;10652;50.306;8.570;2022-10-17T13:44:51;98688.41;;;23.82;63.94
20987;BME280;10652;50.306;8.570;2022-10-17T13:48:53;98691.94;;;23.82;64.14
20987;BME280;10652;50.306;8.570;2022-10-17T13:57:28;98688.78;;;23.77;63.65
20987;BME280;10652;50.306;8.570;2022-10-17T14:01:32;98697.91;;;23.75;63.82
20987;BME280;10652;50.306;8.570;2022-10-17T14:05:34;98691.34;;;23.68;64.68
20987;BME280;10652;50.306;8.570;2022-10-17T14:09:36;98693.69;;;23.61;64.62
20987;BME280;10652;50.306;8.570;2022-10-17T14:13:39;98693.34;;;23.55;64.65
20987;BME280;10652;50.306;8.570;2022-10-17T14:17:43;98690.44;;;23.46;65.17
20987;BME280;10652;50.306;8.570;2022-10-17T14:21:52;98694.53;;;23.39;65.73
20987;BME280;10652;50.306;8.570;2022-10-17T14:26:06;98695.91;;;23.34;65.63
20987;BME280;10652;50.306;8.570;2022-10-17T14:34:46;98702.47;;;23.19;66.63
20987;BME280;10652;50.306;8.570;2022-10-17T14:38:52;98703.94;;;23.12;66.82
20987;BME280;10652;50.306;8.570;2022-10-17T14:43:00;98706.38;;;23.15;66.82
20987;BME280;10652;50.306;8.570;2022-10-17T14:47:05;98714.38;;;23.26;67.14
20987;BME280;10652;50.306;8.570;2022-10-17T14:51:28;98709.00;;;23.37;66.73
20987;BME280;10652;50.306;8.570;2022-10-17T14:55:57;98719.59;;;23.49;67.19
20987;BME280;10652;50.306;8.570;2022-10-17T15:00:00;98719.22;;;23.54;67.32
20987;BME280;10652;50.306;8.570;2022-10-17T15:04:02;98721.66;;;23.46;67.96
20987;BME280;10652;50.306;8.570;2022-10-17T15:08:11;98723.50;;;23.34;69.07
20987;BME280;10652;50.306;8.570;2022-10-17T15:12:17;98729.44;;;23.27;70.28
20987;BME280;10652;50.306;8.570;2022-10-17T15:16:23;98741.34;;;23.23;72.12
20987;BME280;10652;50.306;8.570;2022-10-17T15:20:26;98746.19;;;23.18;72.56
20987;BME280;10652;50.306;8.570;2022-10-17T15:24:30;98748.63;;;23.10;73.16
20987;BME280;10652;50.306;8.570;2022-10-17T15:28:32;98741.84;;;23.05;73.13
20987;BME280;10652;50.306;8.570;2022-10-17T15:32:34;98749.47;;;22.99;73.15
20987;BME280;10652;50.306;8.570;2022-10-17T15:36:40;98751.03;;;22.90;72.14
20987;BME280;10652;50.306;8.570;2022-10-17T15:40:42;98756.94;;;22.72;72.37
20987;BME280;10652;50.306;8.570;2022-10-17T15:44:45;98749.25;;;22.56;72.97
20987;BME280;10652;50.306;8.570;2022-10-17T15:48:52;98749.03;;;22.35;74.37
20987;BME280;10652;50.306;8.570;2022-10-17T15:52:54;98757.09;;;22.11;76.04
20987;BME280;10652;50.306;8.570;2022-10-17T15:56:56;98755.00;;;21.91;77.66
20987;BME280;10652;50.306;8.570;2022-10-17T16:00:58;98763.66;;;21.71;78.64
20987;BME280;10652;50.306;8.570;2022-10-17T16:05:00;98764.00;;;21.54;79.73
20987;BME280;10652;50.306;8.570;2022-10-17T16:09:02;98772.25;;;21.38;81.12
20987;BME280;10652;50.306;8.570;2022-10-17T16:13:04;98775.13;;;21.22;82.46
20987;BME280;10652;50.306;8.570;2022-10-17T16:17:25;98774.50;;;21.06;83.39
20987;BME280;10652;50.306;8.570;2022-10-17T16:21:30;98773.66;;;20.93;84.53
20987;BME280;10652;50.306;8.570;2022-10-17T16:25:33;98779.06;;;20.79;85.52
20987;BME280;10652;50.306;8.570;2022-10-17T16:29:35;98794.81;;;20.69;86.75
20987;BME280;10652;50.306;8.570;2022-10-17T16:33:37;98800.75;;;20.60;87.39
20987;BME280;10652;50.306;8.570;2022-10-17T16:37:39;98788.38;;;20.47;88.08
20987;BME280;10652;50.306;8.570;2022-10-17T16:41:41;98800.03;;;20.31;88.71
20987;BME280;10652;50.306;8.570;2022-10-17T16:45:43;98800.84;;;20.19;89.64
20987;BME280;10652;50.306;8.570;2022-10-17T16:49:46;98804.59;;;20.03;90.46
20987;BME280;10652;50.306;8.570;2022-10-17T16:53:49;98808.91;;;19.91;91.78
20987;BME280;10652;50.306;8.570;2022-10-17T16:57:53;98813.31;;;19.78;92.97
20987;BME280;10652;50.306;8.570;2022-10-17T17:01:55;98818.47;;;19.67;94.62
20987;BME280;10652;50.306;8.570;2022-10-17T17:05:57;98823.78;;;19.52;95.03
20987;BME280;10652;50.306;8.570;2022-10-17T17:09:59;98826.59;;;19.35;95.43
20987;BME280;10652;50.306;8.570;2022-10-17T17:14:02;98837.41;;;19.18;95.91
20987;BME280;10652;50.306;8.570;2022-10-17T17:18:05;98832.56;;;18.96;97.64
20987;BME280;10652;50.306;8.570;2022-10-17T17:22:07;98837.75;;;18.84;98.45
20987;BME280;10652;50.306;8.570;2022-10-17T17:26:18;98839.81;;;18.79;99.68
20987;BME280;10652;50.306;8.570;2022-10-17T17:30:21;98838.47;;;18.72;100.00
20987;BME280;10652;50.306;8.570;2022-10-17T17:34:23;98841.66;;;18.62;99.73
20987;BME280;10652;50.306;8.570;2022-10-17T17:38:28;98843.06;;;18.54;100.00
20987;BME280;10652;50.306;8.570;2022-10-17T17:42:30;98839.91;;;18.47;100.00
20987;BME280;10652;50.306;8.570;2022-10-17T17:46:32;98850.91;;;18.40;100.00
20987;BME280;10652;50.306;8.570;2022-10-17T17:50:38;98852.16;;;18.34;100.00
20987;BME280;10652;50.306;8.570;2022-10-17T17:54:41;98848.41;;;18.22;100.00
20987;BME280;10652;50.306;8.570;2022-10-17T17:58:44;98853.72;;;18.07;100.00
20987;BME280;10652;50.306;8.570;2022-10-17T18:02:46;98856.47;;;17.90;100.00
20987;BME280;10652;50.306;8.570;2022-10-17T18:06:48;98862.78;;;17.71;100.00
20987;BME280;10652;50.306;8.570;2022-10-17T18:10:50;98869.16;;;17.67;100.00
20987;BME280;10652;50.306;8.570;2022-10-17T18:14:57;98863.28;;;17.62;100.00
20987;BME280;10652;50.306;8.570;2022-10-17T18:19:01;98880.56;;;17.52;100.00
20987;BME280;10652;50.306;8.570;2022-10-17T18:23:08;98877.38;;;17.46;100.00
20987;BME280;10652;50.306;8.570;2022-10-17T18:27:11;98886.84;;;17.34;100.00
20987;BME280;10652;50.306;8.570;2022-10-17T18:31:19;98894.66;;;17.20;100.00
20987;BME280;10652;50.306;8.570;2022-10-17T18:35:25;98893.25;;;17.13;100.00
20987;BME280;10652;50.306;8.570;2022-10-17T18:39:27;98888.06;;;17.11;100.00
20987;BME280;10652;50.306;8.570;2022-10-17T18:43:31;98891.47;;;17.13;100.00
20987;BME280;10652;50.306;8.570;2022-10-17T18:47:33;98886.19;;;17.13;100.00
20987;BME280;10652;50.306;8.570;2022-10-17T18:51:35;98896.25;;;17.07;100.00
20987;BME280;10652;50.306;8.570;2022-10-17T18:55:38;98890.31;;;17.02;100.00
20987;BME280;10652;50.306;8.570;2022-10-17T18:59:40;98893.44;;;16.93;100.00
20987;BME280;10652;50.306;8.570;2022-10-17T19:03:44;98890.97;;;16.89;100.00
20987;BME280;10652;50.306;8.570;2022-10-17T19:07:46;98897.81;;;16.94;100.00
20987;BME280;10652;50.306;8.570;2022-10-17T19:11:48;98896.09;;;16.93;100.00
20987;BME280;10652;50.306;8.570;2022-10-17T19:15:50;98897.19;;;16.88;100.00
20987;BME280;10652;50.306;8.570;2022-10-17T19:19:52;98889.72;;;16.79;100.00
20987;BME280;10652;50.306;8.570;2022-10-17T19:24:02;98883.09;;;16.71;100.00
20987;BME280;10652;50.306;8.570;2022-10-17T19:28:04;98877.88;;;16.69;100.00
20987;BME280;10652;50.306;8.570;2022-10-17T19:32:06;98882.25;;;16.70;100.00
20987;BME280;10652;50.306;8.570;2022-10-17T19:36:20;98882.88;;;16.75;100.00
20987;BME280;10652;50.306;8.570;2022-10-17T19:40:22;98885.13;;;16.83;100.00
20987;BME280;10652;50.306;8.570;2022-10-17T19:44:25;98878.66;;;16.88;100.00
20987;BME280;10652;50.306;8.570;2022-10-17T19:48:30;98882.22;;;16.87;100.00
20987;BME280;10652;50.306;8.570;2022-10-17T19:52:33;98871.97;;;16.81;100.00
20987;BME280;10652;50.306;8.570;2022-10-17T19:56:35;98870.09;;;16.83;100.00
20987;BME280;10652;50.306;8.570;2022-10-17T20:00:48;98868.44;;;16.81;100.00
20987;BME280;10652;50.306;8.570;2022-10-17T20:04:51;98873.97;;;16.76;100.00
20987;BME280;10652;50.306;8.570;2022-10-17T20:09:13;98876.00;;;16.88;100.00
20987;BME280;10652;50.306;8.570;2022-10-17T20:13:18;98867.75;;;16.95;100.00
20987;BME280;10652;50.306;8.570;2022-10-17T20:17:20;98867.25;;;17.04;100.00
20987;BME280;10652;50.306;8.570;2022-10-17T20:21:27;98879.75;;;17.02;100.00
20987;BME280;10652;50.306;8.570;2022-10-17T20:25:32;98883.47;;;16.98;100.00
20987;BME280;10652;50.306;8.570;2022-10-17T20:29:35;98901.22;;;16.96;100.00
20987;BME280;10652;50.306;8.570;2022-10-17T20:33:37;98902.75;;;17.00;100.00
20987;BME280;10652;50.306;8.570;2022-10-17T20:37:39;98900.97;;;17.00;100.00
20987;BME280;10652;50.306;8.570;2022-10-17T20:41:44;98902.31;;;16.92;100.00
20987;BME280;10652;50.306;8.570;2022-10-17T20:45:46;98897.78;;;16.76;100.00
20987;BME280;10652;50.306;8.570;2022-10-17T20:49:52;98898.56;;;16.78;100.00
20987;BME280;10652;50.306;8.570;2022-10-17T20:53:54;98896.56;;;16.83;100.00
20987;BME280;10652;50.306;8.570;2022-10-17T20:57:57;98901.84;;;16.83;100.00
20987;BME280;10652;50.306;8.570;2022-10-17T21:01:59;98902.94;;;16.79;100.00
20987;BME280;10652;50.306;8.570;2022-10-17T21:06:02;98899.97;;;16.85;100.00
20987;BME280;10652;50.306;8.570;2022-10-17T21:10:05;98896.31;;;16.88;100.00
20987;BME280;10652;50.306;8.570;2022-10-17T21:14:27;98908.53;;;16.90;100.00
20987;BME280;10652;50.306;8.570;2022-10-17T21:18:29;98906.38;;;16.99;100.00
20987;BME280;10652;50.306;8.570;2022-10-17T21:22:34;98908.69;;;17.05;100.00
20987;BME280;10652;50.306;8.570;2022-10-17T21:26:38;98904.25;;;17.05;100.00
20987;BME280;10652;50.306;8.570;2022-10-17T21:30:40;98899.97;;;17.03;100.00
20987;BME280;10652;50.306;8.570;2022-10-17T21:34:42;98896.06;;;17.10;100.00
20987;BME280;10652;50.306;8.570;2022-10-17T21:38:45;98890.72;;;17.11;100.00
20987;BME280;10652;50.306;8.570;2022-10-17T21:42:48;98885.25;;;17.14;100.00
20987;BME280;10652;50.306;8.570;2022-10-17T21:46:50;98888.59;;;17.18;100.00
20987;BME280;10652;50.306;8.570;2022-10-17T21:50:59;98893.88;;;17.18;100.00
20987;BME280;10652;50.306;8.570;2022-10-17T21:55:01;98889.53;;;17.17;100.00
20987;BME280;10652;50.306;8.570;2022-10-17T21:59:03;98892.09;;;17.18;100.00
20987;BME280;10652;50.306;8.570;2022-10-17T22:03:05;98893.88;;;17.18;100.00
20987;BME280;10652;50.306;8.570;2022-10-17T22:07:09;98890.47;;;17.16;100.00
20987;BME280;10652;50.306;8.570;2022-10-17T22:11:14;98896.88;;;17.12;100.00
20987;BME280;10652;50.306;8.570;2022-10-17T22:15:16;98896.94;;;17.10;100.00
20987;BME280;10652;50.306;8.570;2022-10-17T22:19:23;98897.72;;;17.12;100.00
20987;BME280;10652;50.306;8.570;2022-10-17T22:23:25;98897.56;;;17.15;100.00
20987;BME280;10652;50.306;8.570;2022-10-17T22:27:27;98898.53;;;17.13;100.00
20987;BME280;10652;50.306;8.570;2022-10-17T22:31:30;98894.34;;;17.09;100.00
20987;BME280;10652;50.306;8.570;2022-10-17T22:35:32;98886.41;;;17.09;100.00
20987;BME280;10652;50.306;8.570;2022-10-17T22:39:34;98891.88;;;17.06;100.00
20987;BME280;10652;50.306;8.570;2022-10-17T22:43:36;98885.03;;;17.02;100.00
20987;BME280;10652;50.306;8.570;2022-10-17T22:47:38;98885.88;;;17.02;100.00